createdAt,value
2022-10-11T00:01:17.829Z,1.20
2022-10-11T00:03:44.267Z,0.88
2022-10-11T00:06:10.622Z,0.57
2022-10-11T00:08:39.080Z,0.70
2022-10-11T00:11:07.292Z,0.52
2022-10-11T00:13:33.822Z,0.90
2022-10-11T00:16:00.425Z,0.52
2022-10-11T00:18:27.023Z,0.90
2022-10-11T00:21:08.309Z,0.40
2022-10-11T00:23:35.201Z,0.45
2022-10-11T00:26:04.892Z,0.57
2022-10-11T00:28:31.759Z,0.20
2022-10-11T00:30:58.245Z,0.10
2022-10-11T00:33:24.727Z,0.30
2022-10-11T00:35:51.175Z,0.38
2022-10-11T00:38:18.139Z,0.30
2022-10-11T00:40:45.816Z,0.65
2022-10-11T00:43:17.810Z,0.50
2022-10-11T00:46:01.444Z,0.60
2022-10-11T00:48:42.130Z,0.35
2022-10-11T00:51:32.672Z,0.20
2022-10-11T00:54:01.303Z,0.45
2022-10-11T00:56:33.805Z,0.30
2022-10-11T00:59:04.258Z,0.30
2022-10-11T01:01:31.043Z,0.10
2022-10-11T01:03:57.962Z,0.30
2022-10-11T01:06:24.666Z,0.40
2022-10-11T01:08:52.772Z,0.30
2022-10-11T01:11:23.359Z,0.50
2022-10-11T01:14:08.656Z,0.63
2022-10-11T01:16:39.235Z,0.70
2022-10-11T01:19:33.661Z,0.60
2022-10-11T01:22:18.740Z,0.60
2022-10-11T01:25:23.754Z,0.70
2022-10-11T01:28:25.625Z,0.90
2022-10-11T01:30:54.851Z,0.57
2022-10-11T01:33:30.291Z,0.70
2022-10-11T01:36:27.573Z,0.40
2022-10-11T01:39:11.354Z,0.73
2022-10-11T01:41:41.203Z,0.60
2022-10-11T01:44:09.278Z,0.60
2022-10-11T01:46:36.671Z,0.45
2022-10-11T01:49:04.720Z,0.90
2022-10-11T01:51:34.532Z,0.57
2022-10-11T01:54:03.931Z,0.43
2022-10-11T01:57:13.369Z,0.88
2022-10-11T02:00:15.175Z,0.32
2022-10-11T02:03:05.095Z,0.85
2022-10-11T02:05:57.687Z,0.43
2022-10-11T02:08:27.423Z,0.65
2022-10-11T02:11:11.620Z,0.60
2022-10-11T02:13:46.305Z,0.85
2022-10-11T02:16:18.718Z,0.38
2022-10-11T02:18:49.974Z,0.50
2022-10-11T02:21:19.372Z,0.38
2022-10-11T02:23:56.177Z,0.40
2022-10-11T02:26:24.923Z,0.43
2022-10-11T02:28:56.639Z,0.35
2022-10-11T02:31:25.012Z,0.20
2022-10-11T02:34:05.350Z,0.45
2022-10-11T02:36:55.312Z,0.20
2022-10-11T02:39:29.615Z,0.20
2022-10-11T02:41:59.809Z,0.20
2022-10-11T02:44:37.653Z,0.40
2022-10-11T02:47:05.375Z,0.32
2022-10-11T02:49:32.439Z,0.70
2022-10-11T02:51:59.180Z,0.75
2022-10-11T02:54:26.126Z,0.52
2022-10-11T02:56:52.571Z,0.83
2022-10-11T02:59:19.139Z,0.65
2022-10-11T03:01:45.569Z,0.50
2022-10-11T03:04:12.007Z,1.08
2022-10-11T03:06:38.369Z,0.50
2022-10-11T03:09:04.727Z,0.80
2022-10-11T03:11:31.146Z,0.52
2022-10-11T03:13:57.479Z,0.60
2022-10-11T03:16:23.984Z,0.40
2022-10-11T03:18:51.098Z,0.50
2022-10-11T03:21:17.443Z,0.77
2022-10-11T03:23:43.863Z,0.30
2022-10-11T03:26:10.209Z,0.30
2022-10-11T03:28:36.646Z,0.47
2022-10-11T03:31:03.989Z,0.35
2022-10-11T03:33:30.364Z,0.40
2022-10-11T03:35:56.734Z,0.30
2022-10-11T03:38:23.186Z,0.30
2022-10-11T03:40:49.958Z,0.30
2022-10-11T03:43:16.547Z,0.38
2022-10-11T03:45:43.174Z,0.13
2022-10-11T03:48:10.543Z,0.20
2022-10-11T03:50:37.594Z,0.20
2022-10-11T03:53:05.021Z,0.20
2022-10-11T03:55:31.431Z,0.30
2022-10-11T03:57:57.862Z,0.20
2022-10-11T04:00:24.492Z,0.30
2022-10-11T04:02:50.907Z,0.50
2022-10-11T04:05:17.296Z,0.32
2022-10-11T04:07:43.662Z,0.30
2022-10-11T04:10:10.199Z,0.50
2022-10-11T04:12:38.294Z,0.50
2022-10-11T04:15:05.957Z,0.57
2022-10-11T04:17:32.333Z,0.75
2022-10-11T04:19:58.683Z,0.70
2022-10-11T04:22:25.097Z,0.20
2022-10-11T04:24:52.104Z,0.47
2022-10-11T04:27:18.533Z,0.40
2022-10-11T04:29:44.852Z,0.30
2022-10-11T04:32:11.265Z,0.30
2022-10-11T04:34:37.983Z,0.47
2022-10-11T04:37:04.335Z,0.40
2022-10-11T04:39:30.753Z,1.02
2022-10-11T04:41:57.086Z,0.85
2022-10-11T04:44:23.662Z,0.70
2022-10-11T04:46:50.015Z,0.63
2022-10-11T04:49:16.339Z,0.50
2022-10-11T04:51:42.782Z,0.77
2022-10-11T04:54:09.110Z,0.50
2022-10-11T04:56:35.511Z,0.50
2022-10-11T04:59:01.828Z,0.50
2022-10-11T05:01:28.174Z,0.70
2022-10-11T05:03:54.686Z,0.38
2022-10-11T05:06:21.056Z,0.63
2022-10-11T05:08:47.423Z,0.80
2022-10-11T05:11:16.274Z,0.70
2022-10-11T05:13:43.840Z,0.60
2022-10-11T05:16:11.649Z,0.60
2022-10-11T05:18:38.954Z,0.77
2022-10-11T05:21:08.951Z,0.85
2022-10-11T05:23:36.701Z,0.40
2022-10-11T05:26:04.192Z,0.47
2022-10-11T05:28:31.585Z,0.60
2022-10-11T05:30:58.292Z,0.50
2022-10-11T05:33:25.245Z,0.60
2022-10-11T05:35:51.873Z,0.70
2022-10-11T05:38:19.003Z,0.40
2022-10-11T05:40:45.430Z,0.60
2022-10-11T05:43:11.930Z,0.40
2022-10-11T05:45:39.826Z,1.05
2022-10-11T05:48:06.541Z,0.50
2022-10-11T05:50:32.930Z,0.60
2022-10-11T05:52:59.449Z,0.88
2022-10-11T05:55:25.926Z,0.68
2022-10-11T05:57:56.498Z,0.60
2022-10-11T06:00:24.361Z,0.80
2022-10-11T06:02:50.768Z,0.40
2022-10-11T06:05:17.446Z,0.50
2022-10-11T06:07:44.708Z,1.25
2022-10-11T06:10:11.245Z,1.13
2022-10-11T06:12:37.660Z,0.80
2022-10-11T06:15:05.046Z,0.75
2022-10-11T06:17:31.612Z,0.60
2022-10-11T06:19:58.146Z,0.98
2022-10-11T06:22:24.547Z,0.75
2022-10-11T06:24:50.884Z,0.77
2022-10-11T06:27:17.239Z,0.82
2022-10-11T06:29:43.610Z,0.75
2022-10-11T06:32:10.052Z,0.88
2022-10-11T06:34:36.393Z,0.60
2022-10-11T06:37:02.833Z,0.67
2022-10-11T06:39:29.227Z,1.90
2022-10-11T06:41:55.583Z,0.65
2022-10-11T06:44:22.003Z,0.88
2022-10-11T06:46:48.497Z,1.20
2022-10-11T06:49:18.240Z,1.33
2022-10-11T06:51:47.129Z,1.63
2022-10-11T06:54:13.592Z,1.35
2022-10-11T06:56:40.787Z,1.48
2022-10-11T06:59:07.197Z,1.20
2022-10-11T07:01:33.635Z,1.13
2022-10-11T07:04:01.553Z,1.33
2022-10-11T07:06:31.052Z,1.25
2022-10-11T07:09:00.210Z,0.90
2022-10-11T07:11:27.870Z,1.52
2022-10-11T07:13:59.817Z,1.23
2022-10-11T07:16:27.771Z,1.65
2022-10-11T07:19:00.570Z,1.92
2022-10-11T07:21:29.309Z,1.50
2022-10-11T07:23:55.762Z,1.52
2022-10-11T07:26:22.175Z,1.10
2022-10-11T07:28:48.795Z,0.80
2022-10-11T07:31:19.826Z,1.73
2022-10-11T07:33:46.451Z,1.40
2022-10-11T07:36:13.305Z,1.77
2022-10-11T07:38:41.002Z,1.30
2022-10-11T07:41:08.168Z,1.10
2022-10-11T07:43:35.433Z,1.30
2022-10-11T07:46:04.662Z,1.35
2022-10-11T07:48:32.670Z,1.45
2022-10-11T07:51:25.992Z,1.60
2022-10-11T07:53:55.693Z,1.15
2022-10-11T07:56:24.881Z,1.35
2022-10-11T07:58:53.462Z,1.60
2022-10-11T08:01:20.346Z,1.33
2022-10-11T08:03:47.650Z,1.20
2022-10-11T08:06:17.031Z,1.38
2022-10-11T08:08:43.384Z,1.30
2022-10-11T08:11:10.395Z,1.50
2022-10-11T08:13:36.820Z,1.55
2022-10-11T08:16:10.215Z,1.30
2022-10-11T08:18:36.589Z,1.38
2022-10-11T08:21:08.226Z,1.40
2022-10-11T08:23:34.703Z,1.27
2022-10-11T08:26:01.793Z,1.17
2022-10-11T08:28:28.499Z,0.87
2022-10-11T08:30:55.220Z,1.05
2022-10-11T08:33:23.616Z,1.08
2022-10-11T08:35:52.138Z,1.10
2022-10-11T08:38:19.494Z,1.45
2022-10-11T08:40:47.646Z,0.97
2022-10-11T08:43:35.629Z,0.80
2022-10-11T08:46:04.700Z,1.30
2022-10-11T08:48:49.091Z,1.33
2022-10-11T08:51:24.813Z,1.15
2022-10-11T08:54:04.683Z,0.83
2022-10-11T08:56:37.632Z,1.40
2022-10-11T08:59:28.299Z,0.73
2022-10-11T09:02:03.182Z,1.50
2022-10-11T09:04:32.194Z,3.58
2022-10-11T09:07:25.753Z,9.50
2022-10-11T09:10:07.314Z,10.65
2022-10-11T09:12:50.471Z,13.60
2022-10-11T09:15:26.065Z,19.30
2022-10-11T09:18:04.160Z,21.67
2022-10-11T09:20:51.800Z,23.47
2022-10-11T09:23:39.536Z,22.80
2022-10-11T09:26:17.544Z,21.02
2022-10-11T09:29:14.264Z,14.70
2022-10-11T09:31:46.018Z,5.32
2022-10-11T09:34:14.458Z,2.70
2022-10-11T09:36:55.849Z,2.28
2022-10-11T09:39:33.123Z,1.58
2022-10-11T09:42:10.889Z,1.02
2022-10-11T09:44:41.553Z,0.90
2022-10-11T09:47:16.227Z,1.07
2022-10-11T09:50:03.693Z,0.93
2022-10-11T09:52:30.060Z,1.65
2022-10-11T09:55:00.389Z,1.00
2022-10-11T09:57:33.025Z,0.98
2022-10-11T10:00:02.576Z,1.53
2022-10-11T10:02:38.547Z,1.30
2022-10-11T10:05:10.976Z,1.33
2022-10-11T10:07:40.909Z,1.00
2022-10-11T10:10:40.264Z,0.65
2022-10-11T10:13:21.012Z,0.60
2022-10-11T10:15:50.815Z,0.75
2022-10-11T10:18:34.347Z,1.23
2022-10-11T10:21:01.832Z,0.60
2022-10-11T10:23:36.696Z,0.43
2022-10-11T10:26:24.904Z,0.50
2022-10-11T10:29:01.298Z,0.63
2022-10-11T10:31:55.321Z,0.35
2022-10-11T10:34:26.251Z,0.88
2022-10-11T10:37:02.213Z,0.40
2022-10-11T10:39:44.508Z,0.37
2022-10-11T10:42:17.190Z,0.70
2022-10-11T10:44:52.363Z,0.77
2022-10-11T10:47:21.814Z,0.50
2022-10-11T10:50:02.441Z,0.50
2022-10-11T10:52:43.537Z,0.90
2022-10-11T10:55:31.382Z,0.52
2022-10-11T10:58:15.071Z,0.60
2022-10-11T11:00:50.300Z,0.95
2022-10-11T11:03:46.326Z,0.80
2022-10-11T11:06:34.152Z,0.50
2022-10-11T11:09:21.175Z,0.57
2022-10-11T11:12:05.470Z,0.75
2022-10-11T11:14:52.119Z,0.30
2022-10-11T11:17:43.527Z,1.05
2022-10-11T11:20:12.813Z,0.80
2022-10-11T11:23:22.031Z,0.50
2022-10-11T11:26:31.323Z,0.68
2022-10-11T11:29:13.475Z,0.55
2022-10-11T11:31:56.682Z,0.90
2022-10-11T11:34:26.647Z,0.47
2022-10-11T11:37:00.199Z,0.40
2022-10-11T11:39:30.650Z,0.57
2022-10-11T11:42:07.726Z,0.70
2022-10-11T11:44:40.184Z,0.70
2022-10-11T11:47:19.867Z,0.70
2022-10-11T11:49:53.295Z,0.40
2022-10-11T11:52:36.142Z,0.63
2022-10-11T11:55:14.211Z,0.60
2022-10-11T11:58:03.280Z,0.43
2022-10-11T12:01:10.080Z,1.07
2022-10-11T12:03:47.334Z,0.47
2022-10-11T12:06:13.845Z,0.75
2022-10-11T12:08:46.263Z,0.70
2022-10-11T12:11:25.451Z,0.70
2022-10-11T12:13:53.933Z,0.60
2022-10-11T12:16:22.044Z,0.55
2022-10-11T12:18:55.933Z,0.80
2022-10-11T12:21:25.216Z,0.52
2022-10-11T12:24:00.496Z,0.50
2022-10-11T12:26:47.680Z,0.33
2022-10-11T12:29:17.207Z,0.57
2022-10-11T12:31:46.326Z,0.60
2022-10-11T12:34:37.682Z,0.95
2022-10-11T12:37:19.592Z,0.80
2022-10-11T12:40:27.430Z,0.43
2022-10-11T12:43:12.037Z,0.60
2022-10-11T12:45:38.573Z,0.47
2022-10-11T12:48:22.674Z,0.68
2022-10-11T12:51:02.815Z,0.50
2022-10-11T12:54:25.611Z,0.70
2022-10-11T12:56:57.562Z,0.50
2022-10-11T12:59:24.538Z,0.63
2022-10-11T13:01:54.566Z,0.75
2022-10-11T13:04:25.284Z,0.60
2022-10-11T13:07:01.081Z,0.60
2022-10-11T13:09:39.123Z,0.93
2022-10-11T13:12:09.158Z,0.50
2022-10-11T13:14:42.342Z,0.55
2022-10-11T13:17:19.468Z,0.50
2022-10-11T13:19:46.149Z,0.50
2022-10-11T13:22:23.170Z,0.55
2022-10-11T13:24:49.684Z,0.85
2022-10-11T13:27:20.664Z,0.90
2022-10-11T13:29:49.089Z,0.65
2022-10-11T13:32:24.952Z,0.73
2022-10-11T13:35:01.590Z,0.50
2022-10-11T13:37:29.961Z,0.70
2022-10-11T13:39:57.578Z,0.85
2022-10-11T13:42:29.610Z,0.77
2022-10-11T13:44:56.320Z,0.80
2022-10-11T13:47:27.135Z,0.70
2022-10-11T13:50:15.474Z,0.40
2022-10-11T13:52:57.213Z,0.68
2022-10-11T13:55:30.404Z,0.65
2022-10-11T13:57:58.524Z,0.87
2022-10-11T14:00:34.904Z,0.70
2022-10-11T14:03:22.220Z,1.17
2022-10-11T14:05:55.704Z,0.88
2022-10-11T14:08:25.846Z,1.35
2022-10-11T14:10:56.725Z,0.77
2022-10-11T14:13:31.995Z,0.50
2022-10-11T14:16:18.630Z,0.63
2022-10-11T14:18:50.774Z,0.60
2022-10-11T14:21:23.300Z,0.38
2022-10-11T14:24:02.095Z,0.40
2022-10-11T14:26:33.734Z,0.68
2022-10-11T14:29:04.485Z,0.90
2022-10-11T14:31:31.168Z,0.88
2022-10-11T14:33:58.083Z,0.80
2022-10-11T14:36:26.013Z,0.67
2022-10-11T14:38:52.825Z,0.40
2022-10-11T14:41:19.535Z,0.80
2022-10-11T14:43:45.943Z,0.80
2022-10-11T14:46:24.934Z,0.40
2022-10-11T14:48:56.602Z,0.60
2022-10-11T14:51:29.914Z,0.82
2022-10-11T14:53:57.691Z,0.50
2022-10-11T14:56:24.302Z,0.85
2022-10-11T14:58:50.664Z,0.77
2022-10-11T15:01:17.514Z,0.50
2022-10-11T15:03:44.038Z,0.98
2022-10-11T15:06:36.112Z,0.60
2022-10-11T15:09:03.425Z,0.80
2022-10-11T15:11:29.772Z,1.00
2022-10-11T15:13:56.157Z,1.47
2022-10-11T15:16:23.102Z,0.65
2022-10-11T15:18:52.879Z,1.17
2022-10-11T15:21:22.879Z,0.60
2022-10-11T15:23:50.748Z,1.10
2022-10-11T15:26:21.336Z,0.77
2022-10-11T15:28:49.291Z,0.65
2022-10-11T15:31:15.811Z,0.77
2022-10-11T15:33:42.276Z,0.93
2022-10-11T15:36:14.867Z,0.60
2022-10-11T15:38:41.873Z,0.77
2022-10-11T15:41:12.843Z,0.63
2022-10-11T15:43:40.046Z,0.77
2022-10-11T15:46:06.729Z,0.50
2022-10-11T15:48:33.930Z,1.50
2022-10-11T15:51:00.390Z,2.60
2022-10-11T15:53:30.957Z,3.17
2022-10-11T15:56:00.916Z,6.60
2022-10-11T15:58:36.512Z,5.90
2022-10-11T16:01:09.782Z,1.00
2022-10-11T16:03:36.610Z,0.73
2022-10-11T16:06:05.469Z,0.57
2022-10-11T16:08:33.823Z,0.88
2022-10-11T16:11:00.862Z,0.90
2022-10-11T16:13:27.501Z,1.00
2022-10-11T16:15:54.041Z,1.27
2022-10-11T16:18:22.097Z,0.65
2022-10-11T16:20:51.641Z,0.50
2022-10-11T16:23:19.873Z,0.57
2022-10-11T16:25:46.255Z,0.80
2022-10-11T16:28:12.622Z,0.40
2022-10-11T16:30:43.108Z,0.50
2022-10-11T16:33:09.794Z,1.35
2022-10-11T16:35:36.278Z,0.80
2022-10-11T16:38:02.678Z,0.90
2022-10-11T16:40:30.062Z,0.87
2022-10-11T16:42:56.641Z,0.70
2022-10-11T16:45:23.406Z,1.35
2022-10-11T16:47:50.227Z,0.93
2022-10-11T16:50:16.599Z,0.68
2022-10-11T16:52:42.976Z,0.87
2022-10-11T16:55:09.698Z,0.85
2022-10-11T16:57:39.746Z,1.05
2022-10-11T17:00:08.999Z,0.95
2022-10-11T17:02:36.572Z,0.73
2022-10-11T17:05:03.886Z,0.60
2022-10-11T17:07:30.720Z,0.40
2022-10-11T17:09:57.952Z,0.85
2022-10-11T17:12:24.725Z,0.60
2022-10-11T17:14:51.397Z,1.17
2022-10-11T17:17:18.540Z,0.60
2022-10-11T17:19:47.269Z,0.40
2022-10-11T17:22:17.470Z,0.70
2022-10-11T17:24:44.759Z,0.60
2022-10-11T17:27:11.275Z,0.60
2022-10-11T17:29:37.835Z,0.77
2022-10-11T17:32:04.569Z,0.80
2022-10-11T17:34:31.072Z,1.35
2022-10-11T17:36:57.616Z,0.77
2022-10-11T17:39:25.679Z,0.57
2022-10-11T17:41:52.922Z,0.40
2022-10-11T17:44:19.702Z,0.47
2022-10-11T17:46:46.605Z,0.60
2022-10-11T17:49:13.902Z,0.70
2022-10-11T17:51:41.079Z,0.60
2022-10-11T17:54:12.254Z,0.60
2022-10-11T17:56:40.240Z,1.30
2022-10-11T17:59:07.686Z,1.20
2022-10-11T18:01:34.296Z,0.82
2022-10-11T18:04:03.420Z,1.35
2022-10-11T18:06:31.997Z,0.77
2022-10-11T18:09:02.979Z,1.30
2022-10-11T18:11:30.272Z,0.93
2022-10-11T18:13:56.748Z,0.82
2022-10-11T18:16:28.631Z,1.00
2022-10-11T18:18:57.211Z,0.87
2022-10-11T18:21:28.675Z,1.45
2022-10-11T18:24:02.572Z,1.20
2022-10-11T18:26:30.711Z,1.10
2022-10-11T18:28:57.551Z,1.08
2022-10-11T18:31:26.679Z,1.77
2022-10-11T18:34:03.889Z,1.20
2022-10-11T18:36:31.532Z,1.23
2022-10-11T18:39:03.813Z,1.70
2022-10-11T18:41:32.102Z,1.23
2022-10-11T18:44:01.704Z,1.20
2022-10-11T18:46:28.393Z,1.33
2022-10-11T18:48:57.089Z,1.30
2022-10-11T18:51:33.030Z,1.40
2022-10-11T18:53:59.958Z,1.30
2022-10-11T18:56:27.642Z,0.80
2022-10-11T18:58:55.942Z,0.90
2022-10-11T19:01:38.205Z,0.85
2022-10-11T19:04:07.120Z,0.90
2022-10-11T19:06:36.700Z,0.93
2022-10-11T19:09:17.812Z,1.00
2022-10-11T19:11:45.199Z,0.82
2022-10-11T19:14:14.710Z,1.45
2022-10-11T19:16:46.156Z,1.10
2022-10-11T19:19:12.905Z,1.15
2022-10-11T19:21:39.658Z,1.30
2022-10-11T19:24:06.390Z,1.02
2022-10-11T19:26:36.833Z,1.50
2022-10-11T19:29:09.955Z,1.25
2022-10-11T19:31:42.451Z,2.40
2022-10-11T19:34:10.181Z,2.43
2022-10-11T19:36:37.148Z,2.33
2022-10-11T19:39:04.986Z,2.22
2022-10-11T19:41:32.400Z,1.75
2022-10-11T19:43:58.994Z,1.70
2022-10-11T19:46:49.893Z,1.63
2022-10-11T19:49:15.735Z,1.00
2022-10-11T19:51:42.073Z,1.13
2022-10-11T19:54:11.675Z,1.15
2022-10-11T19:56:38.131Z,1.38
2022-10-11T19:59:06.296Z,1.17
2022-10-11T20:01:34.232Z,1.35
2022-10-11T20:04:06.701Z,1.90
2022-10-11T20:06:38.387Z,1.75
2022-10-11T20:09:27.923Z,1.38
2022-10-11T20:11:53.383Z,1.93
2022-10-11T20:14:20.550Z,2.47
2022-10-11T20:16:49.974Z,3.30
2022-10-11T20:19:16.574Z,2.20
2022-10-11T20:21:43.894Z,2.17
2022-10-11T20:24:10.342Z,1.53
2022-10-11T20:26:36.763Z,2.05
2022-10-11T20:29:03.331Z,2.25
2022-10-11T20:31:32.800Z,3.55
2022-10-11T20:34:01.991Z,2.83
2022-10-11T20:36:30.103Z,2.87
2022-10-11T20:38:58.318Z,3.28
2022-10-11T20:41:34.245Z,3.70
2022-10-11T20:44:02.103Z,4.80
2022-10-11T20:46:31.448Z,4.00
2022-10-11T20:49:03.452Z,4.10
2022-10-11T20:51:31.327Z,4.03
2022-10-11T20:53:58.575Z,3.35
2022-10-11T20:56:25.019Z,3.38
2022-10-11T20:58:53.538Z,3.75
2022-10-11T21:01:22.790Z,3.83
2022-10-11T21:03:50.290Z,3.20
2022-10-11T21:06:16.633Z,2.13
2022-10-11T21:08:43.016Z,2.05
2022-10-11T21:11:10.486Z,1.38
2022-10-11T21:13:37.375Z,1.20
2022-10-11T21:16:10.795Z,0.80
2022-10-11T21:18:37.770Z,0.80
2022-10-11T21:21:09.373Z,0.52
2022-10-11T21:23:35.835Z,0.47
2022-10-11T21:26:11.264Z,0.60
2022-10-11T21:28:38.645Z,1.10
2022-10-11T21:31:10.553Z,1.05
2022-10-11T21:33:38.120Z,1.15
2022-10-11T21:36:09.556Z,0.82
2022-10-11T21:38:36.238Z,1.63
2022-10-11T21:41:07.465Z,1.70
2022-10-11T21:43:35.661Z,1.73
2022-10-11T21:46:20.017Z,2.17
2022-10-11T21:48:47.266Z,1.65
2022-10-11T21:51:15.529Z,1.70
2022-10-11T21:53:41.984Z,2.22
2022-10-11T21:56:08.846Z,2.35
2022-10-11T21:58:35.270Z,1.95
2022-10-11T22:01:01.628Z,2.20
2022-10-11T22:03:28.224Z,2.63
2022-10-11T22:05:54.711Z,2.08
2022-10-11T22:08:21.228Z,2.40
2022-10-11T22:10:56.411Z,2.20
2022-10-11T22:13:24.254Z,1.77
2022-10-11T22:15:50.868Z,1.47
2022-10-11T22:18:17.383Z,1.80
2022-10-11T22:20:43.972Z,2.35
2022-10-11T22:23:11.496Z,1.80
2022-10-11T22:25:38.994Z,1.85
2022-10-11T22:28:06.619Z,1.70
2022-10-11T22:30:33.630Z,1.80
2022-10-11T22:32:59.970Z,2.28
2022-10-11T22:35:26.613Z,1.92
2022-10-11T22:37:53.195Z,1.73
2022-10-11T22:40:20.475Z,1.57
2022-10-11T22:42:46.918Z,1.77
2022-10-11T22:45:13.283Z,1.85
2022-10-11T22:47:39.628Z,2.17
2022-10-11T22:50:06.178Z,1.90
2022-10-11T22:52:32.564Z,1.93
2022-10-11T22:54:58.974Z,1.83
2022-10-11T22:57:25.343Z,2.35
2022-10-11T22:59:51.659Z,2.28
2022-10-11T23:02:18.006Z,2.78
2022-10-11T23:04:44.363Z,2.20
2022-10-11T23:07:10.711Z,2.40
2022-10-11T23:09:37.031Z,2.65
2022-10-11T23:12:03.522Z,3.58
2022-10-11T23:14:29.862Z,3.65
2022-10-11T23:16:56.187Z,2.93
2022-10-11T23:19:22.524Z,2.78
2022-10-11T23:21:48.876Z,3.03
2022-10-11T23:24:15.216Z,3.08
2022-10-11T23:26:41.560Z,3.08
2022-10-11T23:29:07.975Z,2.60
2022-10-11T23:31:34.481Z,2.70
2022-10-11T23:34:00.806Z,3.30
2022-10-11T23:36:27.224Z,2.72
2022-10-11T23:38:56.055Z,3.80
2022-10-11T23:41:24.349Z,5.50
2022-10-11T23:43:50.872Z,6.57
2022-10-11T23:46:17.264Z,5.90
2022-10-11T23:48:43.653Z,5.57
2022-10-11T23:51:10.238Z,6.90
2022-10-11T23:53:36.990Z,5.43
2022-10-11T23:56:04.697Z,3.10
2022-10-11T23:58:31.335Z,3.38
